Time;durP1;ratioP1;P1;durP2;ratioP2;P2;SDS_P1;SDS_P2;PMS_P1;PMS_P2;Temp;Humidity;BMP_temperature;BMP_pressure;BME280_temperature;BME280_humidity;BME280_pressure;Samples;Min_cycle;Max_cycle;Signal;HPM_P1;HPM_P2
2023/03/29 00:00:30;;;;;;;3.70;3.10;;;;;;;;;;12934227;23;20070;-77
2023/03/29 00:05:34;;;;;;;4.95;2.85;;;;;;;;;;12917960;22;20079;-76
2023/03/29 00:10:35;;;;;;;4.57;2.72;;;;;;;;;;12904083;23;20038;-77
2023/03/29 00:15:36;;;;;;;6.15;3.35;;;;;;;;;;12908494;23;20015;-76
2023/03/29 00:20:36;;;;;;;4.07;2.90;;;;;;;;;;12909972;23;20087;-76
2023/03/29 00:25:37;;;;;;;4.63;3.40;;;;;;;;;;12903746;23;20050;-76
2023/03/29 00:30:37;;;;;;;5.72;3.42;;;;;;;;;;12871584;22;20031;-77
2023/03/29 00:35:38;;;;;;;3.88;3.00;;;;;;;;;;12900302;23;20012;-76
2023/03/29 00:40:44;;;;;;;5.60;3.50;;;;;;;;;;12846022;23;20012;-76
2023/03/29 00:45:44;;;;;;;8.25;3.35;;;;;;;;;;12871821;23;20016;-77
2023/03/29 00:50:49;;;;;;;5.28;3.50;;;;;;;;;;12899817;23;20631;-77
2023/03/29 00:55:55;;;;;;;5.20;3.67;;;;;;;;;;12871841;23;20654;-75
2023/03/29 01:01:07;;;;;;;6.57;3.25;;;;;;;;;;12874210;23;20016;-74
2023/03/29 01:06:13;;;;;;;4.00;3.50;;;;;;;;;;12874775;22;20743;-75
2023/03/29 01:11:16;;;;;;;5.00;3.28;;;;;;;;;;12872752;22;20015;-75
2023/03/29 01:16:18;;;;;;;3.60;3.30;;;;;;;;;;12873979;23;20015;-75
2023/03/29 01:21:22;;;;;;;7.50;3.03;;;;;;;;;;12856775;23;20012;-76
2023/03/29 01:26:42;;;;;;;4.93;3.63;;;;;;;;;;12889432;23;20429;-74
2023/03/29 01:31:44;;;;;;;4.05;3.10;;;;;;;;;;12901047;22;20416;-75
2023/03/29 01:36:50;;;;;;;9.43;3.67;;;;;;;;;;12900766;23;20394;-75
2023/03/29 01:41:50;;;;;;;4.75;3.60;;;;;;;;;;12910006;22;20012;-74
2023/03/29 01:46:54;;;;;;;5.57;3.53;;;;;;;;;;12900593;22;20824;-74
2023/03/29 01:51:58;;;;;;;6.07;3.60;;;;;;;;;;12900514;23;20231;-75
2023/03/29 01:56:59;;;;;;;5.82;3.75;;;;;;;;;;12872727;23;20012;-74
2023/03/29 02:02:03;;;;;;;5.38;3.35;;;;;;;;;;12871642;22;20039;-74
2023/03/29 02:07:06;;;;;;;4.80;3.47;;;;;;;;;;12872605;22;20161;-73
2023/03/29 02:12:07;;;;;;;6.68;3.85;;;;;;;;;;12901652;22;20030;-75
2023/03/29 02:17:24;;;;;;;12.85;4.68;;;;;;;;;;12902127;22;20109;-75
2023/03/29 02:22:30;;;;;;;6.68;4.00;;;;;;;;;;12850448;23;20110;-74
2023/03/29 02:27:30;;;;;;;5.68;4.18;;;;;;;;;;12899872;23;20020;-74
2023/03/29 02:32:39;;;;;;;7.88;3.88;;;;;;;;;;12902194;23;20797;-73
2023/03/29 02:37:42;;;;;;;6.15;3.85;;;;;;;;;;12875067;23;20036;-74
2023/03/29 02:42:44;;;;;;;7.43;4.85;;;;;;;;;;12874995;23;20012;-75
2023/03/29 02:47:47;;;;;;;6.95;4.53;;;;;;;;;;12875388;23;20261;-74
2023/03/29 02:52:54;;;;;;;5.28;3.97;;;;;;;;;;12874407;23;20013;-75
2023/03/29 02:57:56;;;;;;;9.75;4.35;;;;;;;;;;12875904;23;20019;-74
2023/03/29 03:02:56;;;;;;;7.85;4.93;;;;;;;;;;12874815;23;20603;-75
2023/03/29 03:07:58;;;;;;;4.95;4.03;;;;;;;;;;12874840;22;20091;-75
2023/03/29 03:12:59;;;;;;;5.68;3.90;;;;;;;;;;12901329;23;20032;-75
2023/03/29 03:18:02;;;;;;;6.72;4.22;;;;;;;;;;12874215;23;20024;-75
2023/03/29 03:23:03;;;;;;;6.63;4.40;;;;;;;;;;12901789;23;20016;-75
2023/03/29 03:28:03;;;;;;;7.13;4.28;;;;;;;;;;12874539;23;20262;-76
2023/03/29 03:33:06;;;;;;;6.75;4.43;;;;;;;;;;12901754;23;20849;-76
2023/03/29 03:38:39;;;;;;;4.50;4.10;;;;;;;;;;12885570;22;20118;-75
2023/03/29 03:43:42;;;;;;;4.88;3.88;;;;;;;;;;12907541;23;20018;-75
2023/03/29 03:48:45;;;;;;;4.88;3.75;;;;;;;;;;12890447;22;20012;-74
2023/03/29 03:54:04;;;;;;;7.65;3.95;;;;;;;;;;12906376;22;20016;-75
2023/03/29 03:59:25;;;;;;;5.38;3.70;;;;;;;;;;12923876;23;20015;-74
2023/03/29 04:04:40;;;;;;;6.47;3.88;;;;;;;;;;12896737;23;20390;-74
2023/03/29 04:09:51;;;;;;;4.85;3.90;;;;;;;;;;12929084;22;20020;-78
2023/03/29 04:15:07;;;;;;;4.63;3.60;;;;;;;;;;12918108;23;20031;-77
2023/03/29 04:20:11;;;;;;;7.13;3.47;;;;;;;;;;12855525;23;20498;-76
2023/03/29 04:25:14;;;;;;;5.05;3.63;;;;;;;;;;12876195;23;20023;-73
2023/03/29 04:30:20;;;;;;;5.70;3.50;;;;;;;;;;12922713;23;20020;-74
2023/03/29 04:35:47;;;;;;;4.93;3.80;;;;;;;;;;12872683;23;20050;-73
2023/03/29 04:40:50;;;;;;;4.57;3.65;;;;;;;;;;12849944;22;20004;-76
2023/03/29 04:46:09;;;;;;;5.32;3.70;;;;;;;;;;12898994;22;20028;-75
2023/03/29 04:51:36;;;;;;;4.70;3.17;;;;;;;;;;12841524;23;20471;-76
2023/03/29 04:56:38;;;;;;;6.23;3.13;;;;;;;;;;12872204;23;20035;-77
2023/03/29 05:01:59;;;;;;;4.72;3.53;;;;;;;;;;12871661;23;20039;-76
2023/03/29 05:07:01;;;;;;;;;;;;;;;;;;12847546;22;20028;-74
2023/03/29 05:12:04;;;;;;;4.50;3.78;;;;;;;;;;12872707;23;20384;-75
2023/03/29 05:17:17;;;;;;;7.28;4.20;;;;;;;;;;12872218;23;20019;-75
2023/03/29 05:22:20;;;;;;;7.38;4.47;;;;;;;;;;12872461;23;20016;-73
2023/03/29 05:27:21;;;;;;;6.00;4.40;;;;;;;;;;12846915;23;20028;-74
2023/03/29 05:32:36;;;;;;;6.70;4.47;;;;;;;;;;12872241;22;20460;-74
2023/03/29 05:37:37;;;;;;;6.07;4.38;;;;;;;;;;12872560;23;20087;-74
2023/03/29 05:42:38;;;;;;;6.82;4.50;;;;;;;;;;12898164;23;20019;-74
2023/03/29 05:47:42;;;;;;;7.78;4.93;;;;;;;;;;12875100;23;20357;-74
2023/03/29 05:52:44;;;;;;;8.07;4.88;;;;;;;;;;12876253;23;20012;-73
2023/03/29 05:57:51;;;;;;;6.45;4.60;;;;;;;;;;12902211;23;20094;-77
2023/03/29 06:02:58;;;;;;;7.05;4.90;;;;;;;;;;12875022;23;20024;-75
2023/03/29 06:08:00;;;;;;;8.15;5.55;;;;;;;;;;12850562;23;20012;-75
2023/03/29 06:13:32;;;;;;;6.45;4.90;;;;;;;;;;12856458;23;20734;-75
2023/03/29 06:18:33;;;;;;;6.38;4.72;;;;;;;;;;12849294;23;20114;-73
2023/03/29 06:23:35;;;;;;;7.85;5.28;;;;;;;;;;12900528;23;20100;-75
2023/03/29 06:28:37;;;;;;;6.63;4.40;;;;;;;;;;12874520;22;20087;-76
2023/03/29 06:33:39;;;;;;;6.78;4.50;;;;;;;;;;12874576;22;20015;-74
2023/03/29 06:38:49;;;;;;;6.13;4.53;;;;;;;;;;12874934;23;20016;-73
2023/03/29 06:44:12;;;;;;;7.07;5.18;;;;;;;;;;12881281;23;20376;-78
2023/03/29 06:49:40;;;;;;;8.68;5.13;;;;;;;;;;12877824;23;20047;-75
2023/03/29 06:55:10;;;;;;;6.15;4.82;;;;;;;;;;12875968;23;20900;-74
2023/03/29 07:00:14;;;;;;;6.55;4.60;;;;;;;;;;12901653;23;20012;-75
2023/03/29 07:05:41;;;;;;;5.53;4.80;;;;;;;;;;12855384;22;20023;-76
2023/03/29 07:10:47;;;;;;;8.20;4.70;;;;;;;;;;12875203;23;20070;-74
2023/03/29 07:16:18;;;;;;;6.32;4.35;;;;;;;;;;12855246;23;20024;-75
2023/03/29 07:21:27;;;;;;;6.60;4.32;;;;;;;;;;12878759;23;20508;-76
2023/03/29 07:26:29;;;;;;;8.23;4.87;;;;;;;;;;12875206;23;20107;-75
2023/03/29 07:31:33;;;;;;;6.57;5.15;;;;;;;;;;12878852;23;20398;-78
2023/03/29 07:36:54;;;;;;;7.50;4.93;;;;;;;;;;12880673;22;20283;-75
2023/03/29 07:41:56;;;;;;;9.60;4.93;;;;;;;;;;12876018;23;20022;-77
2023/03/29 07:46:58;;;;;;;7.25;4.45;;;;;;;;;;12848671;23;20035;-76
2023/03/29 07:52:00;;;;;;;7.68;4.95;;;;;;;;;;12849969;23;20012;-76
2023/03/29 07:57:01;;;;;;;8.48;4.32;;;;;;;;;;12873550;23;20031;-75
2023/03/29 08:02:07;;;;;;;7.75;4.32;;;;;;;;;;12876403;23;20050;-75
2023/03/29 08:07:12;;;;;;;6.07;4.30;;;;;;;;;;12873660;22;20023;-79
2023/03/29 08:12:31;;;;;;;6.85;5.32;;;;;;;;;;12899400;22;20019;-77
2023/03/29 08:17:33;;;;;;;6.82;4.50;;;;;;;;;;12871923;23;20744;-77
2023/03/29 08:22:36;;;;;;;8.23;5.10;;;;;;;;;;12873639;22;20012;-77
2023/03/29 08:27:56;;;;;;;7.63;4.88;;;;;;;;;;12874154;23;20019;-76
2023/03/29 08:33:13;;;;;;;8.90;4.97;;;;;;;;;;12871859;22;20780;-76
2023/03/29 08:38:15;;;;;;;5.82;4.00;;;;;;;;;;12873311;22;20035;-76
2023/03/29 08:43:19;;;;;;;6.47;4.50;;;;;;;;;;12873722;23;20034;-75
2023/03/29 08:48:43;;;;;;;6.43;4.10;;;;;;;;;;12899969;22;20337;-76
2023/03/29 08:53:54;;;;;;;6.18;3.90;;;;;;;;;;12872682;23;20134;-76
2023/03/29 08:59:44;;;;;;;4.40;3.85;;;;;;;;;;12875222;23;20448;-75
2023/03/29 09:04:49;;;;;;;4.95;4.20;;;;;;;;;;12823508;23;20456;-76
2023/03/29 09:10:03;;;;;;;9.43;4.30;;;;;;;;;;12872598;22;20008;-76
2023/03/29 09:15:14;;;;;;;5.88;4.10;;;;;;;;;;12848437;22;20016;-76
2023/03/29 09:20:29;;;;;;;6.50;4.28;;;;;;;;;;12875630;22;20091;-75
2023/03/29 09:25:30;;;;;;;5.68;3.90;;;;;;;;;;12879248;23;20023;-76
2023/03/29 09:30:34;;;;;;;5.10;3.38;;;;;;;;;;12906380;23;20119;-76
2023/03/29 09:35:41;;;;;;;5.18;3.13;;;;;;;;;;12906317;22;20030;-75
2023/03/29 09:40:48;;;;;;;4.80;3.55;;;;;;;;;;12879196;22;20008;-77
2023/03/29 09:45:56;;;;;;;4.05;3.20;;;;;;;;;;12907828;23;20058;-76
2023/03/29 09:50:58;;;;;;;3.75;3.00;;;;;;;;;;12881540;23;20102;-75
2023/03/29 09:56:00;;;;;;;3.53;2.20;;;;;;;;;;12910505;23;20540;-76
2023/03/29 10:01:20;;;;;;;3.35;2.30;;;;;;;;;;12881367;23;20016;-76
2023/03/29 10:06:25;;;;;;;2.55;2.08;;;;;;;;;;12895537;22;20028;-75
2023/03/29 10:11:32;;;;;;;2.78;1.92;;;;;;;;;;12889291;23;20027;-76
2023/03/29 10:16:35;;;;;;;3.45;2.40;;;;;;;;;;12906407;22;20174;-77
2023/03/29 10:21:36;;;;;;;2.20;2.00;;;;;;;;;;12908249;23;20107;-76
2023/03/29 10:26:37;;;;;;;4.38;2.55;;;;;;;;;;12879035;23;20415;-76
2023/03/29 10:31:41;;;;;;;2.88;2.50;;;;;;;;;;12875286;22;20012;-76
2023/03/29 10:36:54;;;;;;;2.50;2.30;;;;;;;;;;12902077;23;20042;-76
2023/03/29 10:41:57;;;;;;;3.13;2.67;;;;;;;;;;12901414;23;20565;-76
2023/03/29 10:47:27;;;;;;;3.72;2.00;;;;;;;;;;12875332;23;20023;-76
2023/03/29 10:52:28;;;;;;;3.47;2.53;;;;;;;;;;12882332;23;20035;-75
2023/03/29 10:57:47;;;;;;;2.65;1.92;;;;;;;;;;12903354;23;20016;-76
2023/03/29 11:03:06;;;;;;;3.35;1.95;;;;;;;;;;12875128;23;20024;-77
2023/03/29 11:08:07;;;;;;;2.55;1.70;;;;;;;;;;12880692;22;20016;-77
2023/03/29 11:13:12;;;;;;;6.90;2.80;;;;;;;;;;12901438;23;20012;-75
2023/03/29 11:18:31;;;;;;;2.78;1.88;;;;;;;;;;12898676;22;20643;-75
2023/03/29 11:23:51;;;;;;;2.67;1.88;;;;;;;;;;12900969;23;20078;-76
2023/03/29 11:28:52;;;;;;;3.08;1.70;;;;;;;;;;12848427;23;20020;-76
2023/03/29 11:34:02;;;;;;;2.88;1.90;;;;;;;;;;12900500;23;20103;-76
2023/03/29 11:39:10;;;;;;;2.20;2.00;;;;;;;;;;12900113;23;20043;-76
2023/03/29 11:44:15;;;;;;;2.42;1.75;;;;;;;;;;12900144;22;20110;-77
2023/03/29 11:49:24;;;;;;;3.83;2.17;;;;;;;;;;12872002;23;20061;-75
2023/03/29 11:54:29;;;;;;;4.55;2.08;;;;;;;;;;12899698;23;20095;-76
2023/03/29 12:00:00;;;;;;;4.80;2.10;;;;;;;;;;12902119;23;20012;-74
2023/03/29 12:05:09;;;;;;;3.95;2.08;;;;;;;;;;12885471;22;20024;-75
2023/03/29 12:10:20;;;;;;;4.68;2.17;;;;;;;;;;12874766;23;20008;-76
2023/03/29 12:15:23;;;;;;;2.58;1.98;;;;;;;;;;12905217;23;20020;-76
2023/03/29 12:20:27;;;;;;;2.90;2.20;;;;;;;;;;12879840;22;20012;-75
2023/03/29 12:25:36;;;;;;;4.03;2.10;;;;;;;;;;12856309;23;20346;-76
2023/03/29 12:30:49;;;;;;;3.58;1.70;;;;;;;;;;12908161;23;20047;-75
2023/03/29 12:36:03;;;;;;;4.03;1.90;;;;;;;;;;12897937;23;20516;-76
2023/03/29 12:41:17;;;;;;;3.20;2.00;;;;;;;;;;12904492;23;20123;-75
2023/03/29 12:46:38;;;;;;;3.95;2.20;;;;;;;;;;12898679;22;20024;-76
2023/03/29 12:51:40;;;;;;;3.42;2.17;;;;;;;;;;12872853;23;20008;-77
2023/03/29 12:56:50;;;;;;;2.87;2.07;;;;;;;;;;12871172;23;20016;-76
2023/03/29 13:01:59;;;;;;;3.95;1.90;;;;;;;;;;12870407;22;20030;-76
2023/03/29 13:07:04;;;;;;;4.65;1.77;;;;;;;;;;12846296;22;20059;-76
2023/03/29 13:12:06;;;;;;;2.30;1.80;;;;;;;;;;12899284;23;20023;-76
2023/03/29 13:17:09;;;;;;;6.68;2.97;;;;;;;;;;12871274;23;20008;-77
2023/03/29 13:22:29;;;;;;;4.47;2.00;;;;;;;;;;12874156;23;20805;-79
2023/03/29 13:27:44;;;;;;;3.90;2.78;;;;;;;;;;12902297;23;20032;-76
2023/03/29 13:32:45;;;;;;;;;;;;;;;;;;12875377;23;20018;-76
2023/03/29 13:37:50;;;;;;;3.03;1.70;;;;;;;;;;12876546;23;20673;-76
2023/03/29 13:43:08;;;;;;;4.45;2.22;;;;;;;;;;12903081;23;20528;-76
2023/03/29 13:48:27;;;;;;;7.88;1.73;;;;;;;;;;12901474;23;20012;-75
2023/03/29 13:53:30;;;;;;;3.97;1.83;;;;;;;;;;12901510;23;20019;-76
2023/03/29 13:58:51;;;;;;;3.78;1.95;;;;;;;;;;12900477;23;20751;-76
2023/03/29 14:03:54;;;;;;;3.30;2.20;;;;;;;;;;12878859;22;20024;-75
2023/03/29 14:08:54;;;;;;;2.30;1.75;;;;;;;;;;12856913;22;20342;-75
2023/03/29 14:13:59;;;;;;;4.07;2.23;;;;;;;;;;12933488;22;20091;-76
2023/03/29 14:19:03;;;;;;;3.13;2.50;;;;;;;;;;12893186;23;20262;-75
2023/03/29 14:24:08;;;;;;;4.88;2.97;;;;;;;;;;12905713;23;20424;-75
2023/03/29 14:29:09;;;;;;;2.92;2.13;;;;;;;;;;12902631;23;20019;-76
2023/03/29 14:34:11;;;;;;;5.07;3.13;;;;;;;;;;12876549;23;20047;-75
2023/03/29 14:39:17;;;;;;;5.78;2.60;;;;;;;;;;12879592;23;20078;-76
2023/03/29 14:44:19;;;;;;;5.50;2.45;;;;;;;;;;12891718;23;20043;-77
2023/03/29 14:49:21;;;;;;;5.28;2.50;;;;;;;;;;12859428;23;20058;-76
2023/03/29 14:54:26;;;;;;;4.43;2.58;;;;;;;;;;12879738;23;20011;-74
2023/03/29 14:59:30;;;;;;;5.15;2.47;;;;;;;;;;12908030;22;20004;-77
2023/03/29 15:04:32;;;;;;;4.90;2.67;;;;;;;;;;12855841;22;20110;-76
2023/03/29 15:09:33;;;;;;;4.18;2.28;;;;;;;;;;12904837;22;20112;-76
2023/03/29 15:14:36;;;;;;;5.25;2.67;;;;;;;;;;12853103;23;20012;-76
2023/03/29 15:19:37;;;;;;;3.97;2.35;;;;;;;;;;12870581;23;20012;-75
2023/03/29 15:24:46;;;;;;;3.40;2.33;;;;;;;;;;12875408;23;20437;-77
2023/03/29 15:29:47;;;;;;;4.30;2.70;;;;;;;;;;12901205;23;20015;-75
2023/03/29 15:34:56;;;;;;;4.10;2.47;;;;;;;;;;12899955;23;20012;-75
2023/03/29 15:39:57;;;;;;;6.00;2.60;;;;;;;;;;12901192;23;20089;-77
2023/03/29 15:44:57;;;;;;;4.40;2.78;;;;;;;;;;12901027;23;20150;-77
2023/03/29 15:49:57;;;;;;;4.60;2.77;;;;;;;;;;12873773;23;20082;-77
2023/03/29 15:54:59;;;;;;;3.88;2.67;;;;;;;;;;12902336;22;20581;-76
2023/03/29 16:00:05;;;;;;;4.90;2.87;;;;;;;;;;12875206;23;20039;-76
2023/03/29 16:05:12;;;;;;;4.45;2.78;;;;;;;;;;12900349;22;20020;-75
2023/03/29 16:10:13;;;;;;;3.47;2.60;;;;;;;;;;12901110;23;20693;-76
2023/03/29 16:15:17;;;;;;;4.70;2.60;;;;;;;;;;12903146;23;20278;-74
2023/03/29 16:20:19;;;;;;;5.22;2.55;;;;;;;;;;12907203;23;20008;-78
2023/03/29 16:25:22;;;;;;;3.28;2.38;;;;;;;;;;12907912;23;20020;-76
2023/03/29 16:30:24;;;;;;;3.50;2.53;;;;;;;;;;12905966;23;20008;-75
2023/03/29 16:35:30;;;;;;;4.03;2.53;;;;;;;;;;12901086;23;20008;-75
2023/03/29 16:40:32;;;;;;;4.47;2.72;;;;;;;;;;12873918;22;20499;-76
2023/03/29 16:45:32;;;;;;;4.03;2.47;;;;;;;;;;12874365;23;20023;-76
2023/03/29 16:50:34;;;;;;;3.40;2.97;;;;;;;;;;12902166;22;20088;-75
2023/03/29 16:55:35;;;;;;;5.10;3.20;;;;;;;;;;12902286;22;20360;-75
2023/03/29 17:00:35;;;;;;;5.38;2.67;;;;;;;;;;12875469;23;20016;-75
2023/03/29 17:05:40;;;;;;;4.07;2.83;;;;;;;;;;12906950;22;20043;-76
2023/03/29 17:10:42;;;;;;;6.05;3.90;;;;;;;;;;12909469;23;20020;-77
2023/03/29 17:15:42;;;;;;;4.10;3.70;;;;;;;;;;12909951;23;20065;-76
2023/03/29 17:20:44;;;;;;;6.68;3.97;;;;;;;;;;12901247;23;20016;-76
2023/03/29 17:25:46;;;;;;;6.22;4.00;;;;;;;;;;12905775;23;20024;-76
2023/03/29 17:30:46;;;;;;;8.38;4.10;;;;;;;;;;12928193;23;20459;-76
2023/03/29 17:35:47;;;;;;;6.80;3.80;;;;;;;;;;12875851;22;20023;-77
2023/03/29 17:40:54;;;;;;;6.60;4.65;;;;;;;;;;12879188;23;20428;-79
2023/03/29 17:45:55;;;;;;;6.93;4.78;;;;;;;;;;12911793;23;20082;-77
2023/03/29 17:50:56;;;;;;;5.10;4.35;;;;;;;;;;12852069;23;20447;-76
2023/03/29 17:55:57;;;;;;;7.50;4.80;;;;;;;;;;12877507;23;20197;-78
2023/03/29 18:00:58;;;;;;;7.82;5.80;;;;;;;;;;12904091;23;20519;-77
2023/03/29 18:06:02;;;;;;;8.05;6.70;;;;;;;;;;12903565;22;20023;-76
2023/03/29 18:11:07;;;;;;;8.55;6.20;;;;;;;;;;12899756;23;20035;-78
2023/03/29 18:16:08;;;;;;;8.70;5.95;;;;;;;;;;12902409;23;20012;-76
2023/03/29 18:21:10;;;;;;;5.78;5.15;;;;;;;;;;12901130;23;20015;-76
2023/03/29 18:26:11;;;;;;;8.27;5.40;;;;;;;;;;12900886;23;20032;-74
2023/03/29 18:31:11;;;;;;;6.70;5.18;;;;;;;;;;12875089;23;20004;-77
2023/03/29 18:36:12;;;;;;;7.20;5.07;;;;;;;;;;12851631;23;20020;-78
2023/03/29 18:41:12;;;;;;;7.93;5.80;;;;;;;;;;12881159;23;20016;-78
2023/03/29 18:46:13;;;;;;;8.75;5.57;;;;;;;;;;12884294;23;20050;-77
2023/03/29 18:51:14;;;;;;;7.03;5.03;;;;;;;;;;12880708;23;20012;-75
2023/03/29 18:56:15;;;;;;;6.10;4.97;;;;;;;;;;12905606;22;20067;-77
2023/03/29 19:01:15;;;;;;;8.90;5.15;;;;;;;;;;12877194;23;20012;-77
2023/03/29 19:06:16;;;;;;;6.88;5.28;;;;;;;;;;12909849;22;20016;-79
2023/03/29 19:11:17;;;;;;;6.00;4.50;;;;;;;;;;12903337;23;20019;-76
2023/03/29 19:16:20;;;;;;;6.40;5.20;;;;;;;;;;12961194;22;20000;-81
2023/03/29 19:21:20;;;;;;;6.72;4.32;;;;;;;;;;12941377;23;20383;-77
2023/03/29 19:26:22;;;;;;;9.87;5.57;;;;;;;;;;12906731;23;20016;-75
2023/03/29 19:31:25;;;;;;;11.32;5.28;;;;;;;;;;12957295;23;20312;-78
2023/03/29 19:36:27;;;;;;;6.05;4.68;;;;;;;;;;12956537;23;20012;-78
2023/03/29 19:41:27;;;;;;;5.70;4.40;;;;;;;;;;12939880;22;20018;-78
2023/03/29 19:46:28;;;;;;;6.75;4.63;;;;;;;;;;12970081;22;20024;-78
2023/03/29 19:51:29;;;;;;;4.72;3.85;;;;;;;;;;12972369;22;19996;-77
2023/03/29 19:56:31;;;;;;;5.20;3.72;;;;;;;;;;12974109;22;20032;-79
2023/03/29 20:01:32;;;;;;;5.60;4.00;;;;;;;;;;12973003;22;20011;-78
2023/03/29 20:06:33;;;;;;;5.88;3.92;;;;;;;;;;12969115;22;20038;-79
2023/03/29 20:11:34;;;;;;;5.95;4.45;;;;;;;;;;12902427;23;20321;-81
2023/03/29 20:16:35;;;;;;;6.75;4.63;;;;;;;;;;12892629;23;20018;-81
2023/03/29 20:21:38;;;;;;;7.63;5.40;;;;;;;;;;12927421;23;20763;-80
2023/03/29 20:26:40;;;;;;;6.97;4.35;;;;;;;;;;12868126;23;20020;-81
2023/03/29 20:31:42;;;;;;;7.00;4.83;;;;;;;;;;12883693;23;20020;-80
2023/03/29 20:36:42;;;;;;;7.85;5.13;;;;;;;;;;12880505;23;20247;-79
2023/03/29 20:41:46;;;;;;;6.32;3.97;;;;;;;;;;12880612;23;20080;-79
2023/03/29 20:47:02;;;;;;;5.68;4.68;;;;;;;;;;12879547;22;20028;-83
2023/03/29 20:52:09;;;;;;;6.65;4.70;;;;;;;;;;12906847;23;20009;-80
2023/03/29 20:57:14;;;;;;;6.35;4.53;;;;;;;;;;12906164;23;20486;-80
2023/03/29 21:02:19;;;;;;;5.57;4.10;;;;;;;;;;12879312;23;20434;-79
2023/03/29 21:07:20;;;;;;;6.22;4.30;;;;;;;;;;12905083;22;20034;-79
2023/03/29 21:12:22;;;;;;;5.03;3.78;;;;;;;;;;12875748;23;20031;-78
2023/03/29 21:17:22;;;;;;;6.07;4.60;;;;;;;;;;12902821;23;20005;-78
2023/03/29 21:22:23;;;;;;;9.00;4.80;;;;;;;;;;12902181;23;20478;-78
2023/03/29 21:27:25;;;;;;;7.28;4.07;;;;;;;;;;12876096;23;20409;-80
2023/03/29 21:32:25;;;;;;;8.63;4.47;;;;;;;;;;12902842;23;20008;-79
2023/03/29 21:37:26;;;;;;;7.18;4.03;;;;;;;;;;12901236;23;20421;-79
2023/03/29 21:42:26;;;;;;;8.13;4.37;;;;;;;;;;12902456;22;20015;-78
2023/03/29 21:47:27;;;;;;;7.97;4.78;;;;;;;;;;12902260;23;20103;-79
2023/03/29 21:52:27;;;;;;;7.03;4.32;;;;;;;;;;12900719;23;20552;-79
2023/03/29 21:57:28;;;;;;;6.65;3.80;;;;;;;;;;12873848;22;20142;-76
2023/03/29 22:02:28;;;;;;;6.22;4.07;;;;;;;;;;12873944;22;20015;-76
2023/03/29 22:07:29;;;;;;;4.57;3.40;;;;;;;;;;12900764;22;20099;-76
2023/03/29 22:12:30;;;;;;;5.00;3.60;;;;;;;;;;12900725;22;20088;-75
2023/03/29 22:17:31;;;;;;;6.05;3.83;;;;;;;;;;12873364;23;20027;-79
2023/03/29 22:22:31;;;;;;;4.90;3.63;;;;;;;;;;12875607;23;20092;-78
2023/03/29 22:27:32;;;;;;;3.73;3.23;;;;;;;;;;12904128;23;20024;-78
2023/03/29 22:32:32;;;;;;;4.63;3.27;;;;;;;;;;12853764;23;20255;-79
2023/03/29 22:37:38;;;;;;;4.20;3.03;;;;;;;;;;12877896;22;20012;-78
2023/03/29 22:42:40;;;;;;;3.88;2.97;;;;;;;;;;12876955;22;20256;-78
2023/03/29 22:47:42;;;;;;;5.03;3.20;;;;;;;;;;12904130;23;20023;-77
2023/03/29 22:52:42;;;;;;;6.33;3.43;;;;;;;;;;12903200;22;20008;-79
2023/03/29 22:57:43;;;;;;;4.60;3.20;;;;;;;;;;12904370;22;20250;-79
2023/03/29 23:02:43;;;;;;;5.63;3.15;;;;;;;;;;12905077;22;20275;-77
2023/03/29 23:07:44;;;;;;;5.20;3.03;;;;;;;;;;12903276;22;20043;-78
2023/03/29 23:12:44;;;;;;;5.80;3.25;;;;;;;;;;12905669;22;20540;-78
2023/03/29 23:17:45;;;;;;;4.70;3.40;;;;;;;;;;12915633;23;20019;-78
2023/03/29 23:22:47;;;;;;;3.55;3.05;;;;;;;;;;12858564;23;20012;-78
2023/03/29 23:27:49;;;;;;;5.00;3.05;;;;;;;;;;12877028;23;20031;-78
2023/03/29 23:32:51;;;;;;;5.93;2.55;;;;;;;;;;12884181;22;20091;-80
2023/03/29 23:37:51;;;;;;;5.28;3.35;;;;;;;;;;12877278;23;20449;-78
2023/03/29 23:42:58;;;;;;;3.95;2.70;;;;;;;;;;12852168;23;20024;-78
2023/03/29 23:47:58;;;;;;;4.88;2.80;;;;;;;;;;12853027;22;20055;-78
2023/03/29 23:53:00;;;;;;;3.97;3.10;;;;;;;;;;12877398;23;20039;-78
2023/03/29 23:58:00;;;;;;;3.60;2.75;;;;;;;;;;12852600;23;20005;-78
